createdAt,value
2023-01-20T00:01:31.585Z,96479.81
2023-01-20T00:04:33.227Z,96482.44
2023-01-20T00:07:35.976Z,96482.22
2023-01-20T00:10:37.557Z,96483.19
2023-01-20T00:13:39.592Z,96487.75
2023-01-20T00:16:41.149Z,96501.66
2023-01-20T00:19:42.923Z,96500.28
2023-01-20T00:22:44.445Z,96501.53
2023-01-20T00:25:46.061Z,96503.91
2023-01-20T00:28:48.185Z,96501.31
2023-01-20T00:31:49.676Z,96508.88
2023-01-20T00:34:51.154Z,96511.50
2023-01-20T00:37:52.769Z,96513.03
2023-01-20T00:40:55.261Z,96507.72
2023-01-20T00:43:56.732Z,96515.91
2023-01-20T00:46:58.308Z,96524.47
2023-01-20T00:49:59.825Z,96529.94
2023-01-20T00:53:01.454Z,96527.84
2023-01-20T00:56:02.993Z,96521.25
2023-01-20T00:59:04.468Z,96531.66
2023-01-20T01:02:06.148Z,96534.44
2023-01-20T01:05:08.108Z,96539.94
2023-01-20T01:08:09.712Z,96541.34
2023-01-20T01:11:12.306Z,96543.94
2023-01-20T01:14:13.973Z,96555.28
2023-01-20T01:17:15.555Z,96558.00
2023-01-20T01:20:17.458Z,96557.69
2023-01-20T01:23:19.061Z,96566.91
2023-01-20T01:26:20.672Z,96566.81
2023-01-20T01:29:22.284Z,96574.59
2023-01-20T01:32:24.251Z,96583.53
2023-01-20T01:35:25.822Z,96585.19
2023-01-20T01:38:28.291Z,96596.03
2023-01-20T01:41:30.062Z,96596.72
2023-01-20T01:44:32.413Z,96596.63
2023-01-20T01:47:34.871Z,96596.03
2023-01-20T01:50:41.929Z,96602.16
2023-01-20T01:53:47.459Z,96603.69
2023-01-20T01:56:50.957Z,96603.69
2023-01-20T01:59:52.570Z,96598.63
2023-01-20T02:02:55.777Z,96599.63
2023-01-20T02:05:58.336Z,96609.19
2023-01-20T02:09:02.365Z,96607.09
2023-01-20T02:12:09.091Z,96609.09
2023-01-20T02:15:11.015Z,96603.22
2023-01-20T02:18:32.738Z,96604.66
2023-01-20T02:21:57.581Z,96615.31
2023-01-20T02:25:19.827Z,96612.44
2023-01-20T02:29:11.726Z,96619.25
2023-01-20T02:32:49.989Z,96613.09
2023-01-20T02:36:04.185Z,96623.75
2023-01-20T02:39:11.676Z,96622.78
2023-01-20T02:43:02.276Z,96620.06
2023-01-20T02:46:11.713Z,96629.41
2023-01-20T02:49:24.053Z,96628.84
2023-01-20T02:52:30.333Z,96631.06
2023-01-20T02:55:44.159Z,96626.81
2023-01-20T02:58:50.894Z,96640.16
2023-01-20T03:01:57.299Z,96646.75
2023-01-20T03:05:10.038Z,96640.97
2023-01-20T03:08:14.507Z,96639.56
2023-01-20T03:11:16.497Z,96649.25
2023-01-20T03:14:18.179Z,96651.03
2023-01-20T03:17:20.699Z,96650.19
2023-01-20T03:20:22.259Z,96660.47
2023-01-20T03:23:26.619Z,96662.81
2023-01-20T03:26:28.377Z,96667.19
2023-01-20T03:29:30.713Z,96669.69
2023-01-20T03:32:32.539Z,96670.50
2023-01-20T03:35:34.485Z,96669.41
2023-01-20T03:38:36.396Z,96680.06
2023-01-20T03:41:40.563Z,96681.13
2023-01-20T03:44:48.053Z,96685.13
2023-01-20T03:48:04.293Z,96685.25
2023-01-20T03:51:13.915Z,96685.38
2023-01-20T03:54:23.023Z,96685.25
2023-01-20T03:57:31.888Z,96688.44
2023-01-20T04:00:37.436Z,96690.59
2023-01-20T04:03:44.492Z,96683.16
2023-01-20T04:06:49.559Z,96693.31
2023-01-20T04:09:56.309Z,96698.25
2023-01-20T04:12:57.809Z,96697.22
2023-01-20T04:16:01.886Z,96702.66
2023-01-20T04:19:03.430Z,96707.22
2023-01-20T04:22:22.020Z,96713.38
2023-01-20T04:25:31.124Z,96719.25
2023-01-20T04:28:32.561Z,96721.63
2023-01-20T04:31:35.415Z,96722.19
2023-01-20T04:34:37.060Z,96729.91
2023-01-20T04:37:38.532Z,96725.78
2023-01-20T04:40:40.051Z,96726.00
2023-01-20T04:43:45.163Z,96733.69
2023-01-20T04:46:47.348Z,96734.00
2023-01-20T04:49:48.911Z,96739.09
2023-01-20T04:52:55.135Z,96745.81
2023-01-20T04:55:56.688Z,96751.03
2023-01-20T04:58:58.609Z,96758.69
2023-01-20T05:02:00.544Z,96764.22
2023-01-20T05:05:02.112Z,96774.84
2023-01-20T05:08:04.777Z,96770.97
2023-01-20T05:11:06.669Z,96778.38
2023-01-20T05:14:08.580Z,96779.78
2023-01-20T05:17:10.071Z,96796.41
2023-01-20T05:20:11.679Z,96804.28
2023-01-20T05:23:13.219Z,96811.06
2023-01-20T05:26:14.778Z,96810.16
2023-01-20T05:29:16.362Z,96809.66
2023-01-20T05:32:17.808Z,96814.81
2023-01-20T05:35:19.349Z,96820.19
2023-01-20T05:38:21.043Z,96826.66
2023-01-20T05:41:22.580Z,96840.06
2023-01-20T05:44:24.119Z,96835.88
2023-01-20T05:47:25.665Z,96847.72
2023-01-20T05:50:28.344Z,96852.81
2023-01-20T05:53:29.891Z,96857.09
2023-01-20T05:56:31.456Z,96861.56
2023-01-20T05:59:33.048Z,96862.38
2023-01-20T06:02:34.541Z,96865.38
2023-01-20T06:05:36.051Z,96872.75
2023-01-20T06:08:37.622Z,96873.78
2023-01-20T06:11:39.219Z,96870.56
2023-01-20T06:14:40.680Z,96877.72
2023-01-20T06:17:42.193Z,96882.63
2023-01-20T06:20:43.773Z,96883.69
2023-01-20T06:27:06.340Z,96893.59
2023-01-20T06:30:08.870Z,96892.69
2023-01-20T06:33:10.897Z,96897.44
2023-01-20T06:36:14.161Z,96906.44
2023-01-20T06:39:15.629Z,96912.16
2023-01-20T06:42:17.060Z,96908.81
2023-01-20T06:45:18.845Z,96917.31
2023-01-20T06:48:20.573Z,96924.34
2023-01-20T06:51:22.097Z,96919.38
2023-01-20T06:54:23.784Z,96927.47
2023-01-20T06:57:25.361Z,96932.97
2023-01-20T07:00:27.083Z,96941.66
2023-01-20T07:03:28.715Z,96945.28
2023-01-20T07:06:38.759Z,96956.66
2023-01-20T07:09:40.323Z,96957.28
2023-01-20T07:12:41.933Z,96965.19
2023-01-20T07:15:43.682Z,96968.69
2023-01-20T07:18:48.848Z,96973.44
2023-01-20T07:21:50.371Z,96976.34
2023-01-20T07:24:51.975Z,96968.50
2023-01-20T07:27:53.537Z,96986.63
2023-01-20T07:30:55.143Z,96991.28
2023-01-20T07:33:58.124Z,96997.47
2023-01-20T07:37:02.267Z,96999.56
2023-01-20T07:40:04.285Z,97003.16
2023-01-20T07:43:05.847Z,97009.78
2023-01-20T07:46:07.718Z,97019.22
2023-01-20T07:49:12.218Z,97015.72
2023-01-20T07:52:14.104Z,97022.72
2023-01-20T07:55:15.985Z,97017.75
2023-01-20T07:58:17.634Z,97022.41
2023-01-20T08:01:23.070Z,97030.09
2023-01-20T08:04:24.778Z,97027.78
2023-01-20T08:07:26.280Z,97036.06
2023-01-20T08:10:29.262Z,97045.50
2023-01-20T08:13:31.720Z,97047.34
2023-01-20T08:16:33.647Z,97060.38
2023-01-20T08:19:35.242Z,97056.91
2023-01-20T08:22:36.747Z,97058.84
2023-01-20T08:25:38.335Z,97061.31
2023-01-20T08:28:40.163Z,97060.88
2023-01-20T08:31:42.465Z,97068.94
2023-01-20T08:34:44.097Z,97073.44
2023-01-20T08:37:45.592Z,97066.06
2023-01-20T08:40:47.124Z,97074.66
2023-01-20T08:43:49.331Z,97082.97
2023-01-20T08:46:52.693Z,97091.25
2023-01-20T08:49:54.429Z,97096.19
2023-01-20T08:52:55.877Z,97094.56
2023-01-20T08:55:59.284Z,97104.38
2023-01-20T08:59:04.414Z,97109.00
2023-01-20T09:02:26.289Z,97112.31
2023-01-20T09:05:27.937Z,97119.19
2023-01-20T09:08:30.526Z,97118.72
2023-01-20T09:11:32.113Z,97122.53
2023-01-20T09:14:33.677Z,97124.91
2023-01-20T09:17:36.068Z,97130.59
2023-01-20T09:20:37.589Z,97133.69
2023-01-20T09:23:40.340Z,97133.25
2023-01-20T09:26:41.839Z,97143.06
2023-01-20T09:29:43.347Z,97139.88
2023-01-20T09:32:44.840Z,97145.06
2023-01-20T09:35:54.163Z,97146.75
2023-01-20T09:39:14.385Z,97147.13
2023-01-20T09:42:50.929Z,97152.25
2023-01-20T09:46:07.727Z,97154.59
2023-01-20T09:49:49.987Z,97160.66
2023-01-20T09:53:21.269Z,97169.28
2023-01-20T09:56:27.807Z,97164.56
2023-01-20T09:59:40.190Z,97156.75
2023-01-20T10:02:47.994Z,97163.13
2023-01-20T10:05:52.917Z,97159.69
2023-01-20T10:09:06.283Z,97164.28
2023-01-20T10:12:15.820Z,97167.81
2023-01-20T10:15:37.237Z,97156.50
2023-01-20T10:18:54.004Z,97158.44
2023-01-20T10:22:13.329Z,97155.06
2023-01-20T10:25:21.288Z,97151.75
2023-01-20T10:28:28.481Z,97156.00
2023-01-20T10:31:37.851Z,97159.81
2023-01-20T10:34:46.299Z,97157.84
2023-01-20T10:37:47.794Z,97160.72
2023-01-20T10:41:00.235Z,97155.03
2023-01-20T10:44:03.044Z,97146.13
2023-01-20T10:47:40.872Z,97142.94
2023-01-20T10:50:56.289Z,97142.97
2023-01-20T10:54:26.710Z,97151.94
2023-01-20T10:57:28.336Z,97155.47
2023-01-20T11:00:32.007Z,97160.09
2023-01-20T11:03:41.025Z,97166.59
2023-01-20T11:06:42.869Z,97156.72
2023-01-20T11:09:47.105Z,97162.69
2023-01-20T11:12:50.098Z,97157.41
2023-01-20T11:15:56.451Z,97160.28
2023-01-20T11:19:04.133Z,97165.75
2023-01-20T11:22:21.261Z,97165.44
2023-01-20T11:25:25.823Z,97166.66
2023-01-20T11:28:45.770Z,97175.56
2023-01-20T11:31:55.051Z,97165.50
2023-01-20T11:34:57.971Z,97171.19
2023-01-20T11:38:20.080Z,97178.56
2023-01-20T11:41:23.060Z,97173.38
2023-01-20T11:44:25.190Z,97174.66
2023-01-20T11:47:38.735Z,97176.31
2023-01-20T11:50:45.942Z,97175.38
2023-01-20T11:53:48.134Z,97176.38
2023-01-20T11:56:54.649Z,97170.88
2023-01-20T11:59:56.416Z,97174.78
2023-01-20T12:03:24.327Z,97168.63
2023-01-20T12:06:29.690Z,97160.41
2023-01-20T12:09:37.589Z,97168.63
2023-01-20T12:12:50.809Z,97168.03
2023-01-20T12:15:55.673Z,97168.38
2023-01-20T12:19:03.316Z,97177.31
2023-01-20T12:22:13.567Z,97180.00
2023-01-20T12:25:22.297Z,97181.97
2023-01-20T12:28:51.718Z,97180.16
2023-01-20T12:31:54.492Z,97179.81
2023-01-20T12:34:56.149Z,97176.38
2023-01-20T12:38:08.397Z,97175.94
2023-01-20T12:41:34.567Z,97177.78
2023-01-20T12:44:53.699Z,97176.94
2023-01-20T12:48:15.472Z,97182.94
2023-01-20T12:51:20.813Z,97187.59
2023-01-20T12:54:47.357Z,97186.59
2023-01-20T12:58:08.360Z,97187.00
2023-01-20T13:01:42.914Z,97190.50
2023-01-20T13:04:44.344Z,97182.09
2023-01-20T13:08:09.716Z,97190.25
2023-01-20T13:11:39.394Z,97186.84
2023-01-20T13:14:58.657Z,97188.66
2023-01-20T13:18:29.842Z,97184.88
2023-01-20T13:21:33.132Z,97187.81
2023-01-20T13:24:35.269Z,97185.44
2023-01-20T13:27:38.361Z,97187.94
2023-01-20T13:30:47.761Z,97195.13
2023-01-20T13:33:49.323Z,97186.25
2023-01-20T13:37:07.334Z,97194.69
2023-01-20T13:40:36.532Z,97203.16
2023-01-20T13:43:44.064Z,97203.78
2023-01-20T13:46:47.527Z,97204.78
2023-01-20T13:49:54.502Z,97208.28
2023-01-20T13:53:11.304Z,97207.84
2023-01-20T13:56:35.022Z,97219.06
2023-01-20T13:59:37.394Z,97211.88
2023-01-20T14:02:39.018Z,97215.06
2023-01-20T14:05:43.364Z,97211.94
2023-01-20T14:08:47.729Z,97210.13
2023-01-20T14:11:50.870Z,97218.16
2023-01-20T14:14:54.118Z,97218.31
2023-01-20T14:17:58.400Z,97224.28
2023-01-20T14:21:04.644Z,97215.47
2023-01-20T14:24:06.242Z,97224.22
2023-01-20T14:27:24.498Z,97223.66
2023-01-20T14:30:27.612Z,97222.50
2023-01-20T14:33:29.224Z,97230.03
2023-01-20T14:36:33.110Z,97227.59
2023-01-20T14:39:35.415Z,97231.25
2023-01-20T14:42:38.727Z,97227.94
2023-01-20T14:45:43.779Z,97237.44
2023-01-20T14:48:46.397Z,97235.75
2023-01-20T14:51:50.214Z,97234.19
2023-01-20T14:54:53.018Z,97242.25
2023-01-20T14:57:55.039Z,97238.66
2023-01-20T15:01:01.907Z,97236.44
2023-01-20T15:04:05.957Z,97236.09
2023-01-20T15:07:17.862Z,97242.00
2023-01-20T15:10:19.715Z,97231.31
2023-01-20T15:13:23.120Z,97247.34
2023-01-20T15:16:36.986Z,97230.81
2023-01-20T15:19:46.207Z,97232.38
2023-01-20T15:22:48.552Z,97247.72
2023-01-20T15:25:51.959Z,97258.66
2023-01-20T15:28:54.958Z,97255.69
2023-01-20T15:31:59.010Z,97259.13
2023-01-20T15:35:00.485Z,97257.13
2023-01-20T15:38:02.087Z,97257.34
2023-01-20T15:41:03.662Z,97264.34
2023-01-20T15:44:05.821Z,97265.75
2023-01-20T15:47:29.235Z,97271.19
2023-01-20T15:50:31.584Z,97270.84
2023-01-20T15:53:36.146Z,97265.06
2023-01-20T15:56:40.989Z,97274.50
2023-01-20T15:59:46.039Z,97269.56
2023-01-20T16:02:47.846Z,97277.25
2023-01-20T16:05:51.780Z,97279.47
2023-01-20T16:08:53.542Z,97278.66
2023-01-20T16:11:55.312Z,97288.38
2023-01-20T16:14:57.212Z,97290.22
2023-01-20T16:17:58.699Z,97299.13
2023-01-20T16:21:00.208Z,97300.28
2023-01-20T16:24:01.695Z,97298.88
2023-01-20T16:27:11.670Z,97296.59
2023-01-20T16:30:19.641Z,97302.00
2023-01-20T16:33:24.336Z,97297.59
2023-01-20T16:36:25.879Z,97311.44
2023-01-20T16:39:27.385Z,97313.31
2023-01-20T16:42:28.927Z,97320.41
2023-01-20T16:45:31.473Z,97321.34
2023-01-20T16:48:32.990Z,97320.75
2023-01-20T16:51:34.512Z,97321.91
2023-01-20T16:54:36.093Z,97325.66
2023-01-20T16:57:37.835Z,97326.84
2023-01-20T17:00:40.109Z,97327.66
2023-01-20T17:03:42.365Z,97330.59
2023-01-20T17:06:43.992Z,97335.41
2023-01-20T17:10:09.024Z,97333.38
2023-01-20T17:13:10.452Z,97339.38
2023-01-20T17:16:12.132Z,97342.09
2023-01-20T17:19:15.093Z,97346.47
2023-01-20T17:22:18.146Z,97340.75
2023-01-20T17:25:19.926Z,97350.69
2023-01-20T17:28:21.503Z,97345.50
2023-01-20T17:31:23.784Z,97355.13
2023-01-20T17:34:25.485Z,97351.00
2023-01-20T17:37:27.117Z,97354.66
2023-01-20T17:40:28.567Z,97360.38
2023-01-20T17:43:38.470Z,97354.47
2023-01-20T17:46:39.991Z,97354.28
2023-01-20T17:49:41.765Z,97354.31
2023-01-20T17:52:43.327Z,97354.22
2023-01-20T17:55:44.814Z,97355.56
2023-01-20T17:58:47.306Z,97354.31
2023-01-20T18:01:52.302Z,97357.66
2023-01-20T18:04:53.848Z,97360.56
2023-01-20T18:07:55.355Z,97356.47
2023-01-20T18:11:05.380Z,97368.00
2023-01-20T18:14:07.548Z,97367.56
2023-01-20T18:17:09.138Z,97371.19
2023-01-20T18:20:12.071Z,97372.25
2023-01-20T18:23:13.598Z,97378.63
2023-01-20T18:26:16.840Z,97373.31
2023-01-20T18:29:18.323Z,97371.41
2023-01-20T18:32:19.862Z,97373.72
2023-01-20T18:35:21.371Z,97380.97
2023-01-20T18:38:22.964Z,97376.28
2023-01-20T18:41:26.842Z,97361.91
2023-01-20T18:44:28.329Z,97379.56
2023-01-20T18:47:29.885Z,97375.19
2023-01-20T18:50:31.407Z,97381.50
2023-01-20T18:53:33.230Z,97384.28
2023-01-20T18:56:35.383Z,97378.59
2023-01-20T18:59:36.864Z,97390.28
2023-01-20T19:02:38.508Z,97386.00
2023-01-20T19:05:40.061Z,97385.91
2023-01-20T19:08:43.124Z,97392.00
2023-01-20T19:11:44.691Z,97386.75
2023-01-20T19:14:46.275Z,97396.69
2023-01-20T19:17:47.863Z,97387.53
2023-01-20T19:20:49.706Z,97410.06
2023-01-20T19:23:56.742Z,97411.66
2023-01-20T19:27:00.301Z,97400.28
2023-01-20T19:30:01.969Z,97406.25
2023-01-20T19:33:03.903Z,97398.25
2023-01-20T19:36:07.932Z,97407.16
2023-01-20T19:39:09.339Z,97404.66
2023-01-20T19:42:11.824Z,97407.72
2023-01-20T19:45:13.563Z,97415.47
2023-01-20T19:48:15.181Z,97403.91
2023-01-20T19:51:17.329Z,97417.22
2023-01-20T19:54:18.920Z,97408.00
2023-01-20T19:57:20.511Z,97395.78
2023-01-20T20:00:22.163Z,97401.78
2023-01-20T20:03:23.800Z,97409.06
2023-01-20T20:06:25.380Z,97408.09
2023-01-20T20:09:27.592Z,97406.31
2023-01-20T20:12:29.200Z,97408.81
2023-01-20T20:15:30.862Z,97411.97
2023-01-20T20:18:32.402Z,97420.66
2023-01-20T20:21:34.233Z,97418.78
2023-01-20T20:24:35.931Z,97420.09
2023-01-20T20:27:37.515Z,97421.13
2023-01-20T20:30:42.127Z,97412.72
2023-01-20T20:33:46.075Z,97406.97
2023-01-20T20:36:47.973Z,97420.38
2023-01-20T20:39:51.508Z,97407.25
2023-01-20T20:42:52.972Z,97407.50
2023-01-20T20:45:54.637Z,97420.53
2023-01-20T20:49:01.347Z,97415.00
2023-01-20T20:52:02.936Z,97408.78
2023-01-20T20:55:05.544Z,97415.44
2023-01-20T20:58:07.583Z,97406.75
2023-01-20T21:01:16.402Z,97413.03
2023-01-20T21:04:18.016Z,97406.94
2023-01-20T21:07:19.509Z,97410.91
2023-01-20T21:10:21.169Z,97409.91
2023-01-20T21:13:23.526Z,97410.28
2023-01-20T21:16:26.257Z,97417.31
2023-01-20T21:19:27.792Z,97420.56
2023-01-20T21:22:29.609Z,97411.88
2023-01-20T21:25:31.473Z,97410.78
2023-01-20T21:28:35.586Z,97406.97
2023-01-20T21:31:37.111Z,97401.41
2023-01-20T21:34:38.742Z,97402.34
2023-01-20T21:37:40.237Z,97406.25
2023-01-20T21:40:44.792Z,97409.81
2023-01-20T21:44:06.366Z,97401.78
2023-01-20T21:47:08.113Z,97403.81
2023-01-20T21:50:29.527Z,97403.09
2023-01-20T21:53:30.997Z,97408.53
2023-01-20T21:56:32.599Z,97413.06
2023-01-20T21:59:34.113Z,97415.22
2023-01-20T22:02:35.878Z,97418.34
2023-01-20T22:05:38.621Z,97408.44
2023-01-20T22:08:40.178Z,97409.53
2023-01-20T22:11:41.745Z,97416.56
2023-01-20T22:14:43.476Z,97414.16
2023-01-20T22:17:45.407Z,97425.34
2023-01-20T22:21:21.660Z,97429.09
2023-01-20T22:24:23.540Z,97424.63
2023-01-20T22:27:25.046Z,97422.97
2023-01-20T22:30:26.652Z,97428.03
2023-01-20T22:33:28.169Z,97432.34
2023-01-20T22:36:29.767Z,97435.94
2023-01-20T22:39:31.385Z,97432.63
2023-01-20T22:42:34.084Z,97433.97
2023-01-20T22:45:35.574Z,97427.47
2023-01-20T22:48:37.221Z,97436.13
2023-01-20T22:51:39.027Z,97434.66
2023-01-20T22:54:40.573Z,97439.66
2023-01-20T22:57:42.123Z,97432.72
2023-01-20T23:00:43.849Z,97432.66
2023-01-20T23:03:46.169Z,97443.91
2023-01-20T23:06:47.703Z,97443.34
2023-01-20T23:09:50.035Z,97438.50
2023-01-20T23:12:51.865Z,97444.19
2023-01-20T23:15:53.603Z,97449.69
2023-01-20T23:18:55.154Z,97441.63
2023-01-20T23:21:56.794Z,97450.19
2023-01-20T23:24:58.329Z,97443.19
2023-01-20T23:27:59.887Z,97439.03
2023-01-20T23:31:04.543Z,97436.59
2023-01-20T23:34:06.134Z,97453.88
2023-01-20T23:37:07.824Z,97444.09
2023-01-20T23:40:10.306Z,97438.69
2023-01-20T23:43:11.849Z,97442.03
2023-01-20T23:46:13.561Z,97438.19
2023-01-20T23:49:15.234Z,97438.09
2023-01-20T23:52:16.987Z,97437.66
2023-01-20T23:55:18.528Z,97436.53
2023-01-20T23:58:20.112Z,97437.25
